sensor_id;sensor_type;location;lat;lon;timestamp;P1;durP1;ratioP1;P2;durP2;ratioP2
32912;SDS011;19266;45.580;-122.680;2022-07-31T00:02:30;26.40;;;6.20;;
32912;SDS011;19266;45.580;-122.680;2022-07-31T00:04:59;5.33;;;4.83;;
32912;SDS011;19266;45.580;-122.680;2022-07-31T00:07:30;5.12;;;4.67;;
32912;SDS011;19266;45.580;-122.680;2022-07-31T00:10:01;7.28;;;4.60;;
32912;SDS011;19266;45.580;-122.680;2022-07-31T00:12:31;5.00;;;4.60;;
32912;SDS011;19266;45.580;-122.680;2022-07-31T00:15:04;8.10;;;4.50;;
32912;SDS011;19266;45.580;-122.680;2022-07-31T00:17:42;11.70;;;4.65;;
32912;SDS011;19266;45.580;-122.680;2022-07-31T00:20:14;5.10;;;4.60;;
32912;SDS011;19266;45.580;-122.680;2022-07-31T00:22:43;5.87;;;4.50;;
32912;SDS011;19266;45.580;-122.680;2022-07-31T00:25:16;6.58;;;4.78;;
32912;SDS011;19266;45.580;-122.680;2022-07-31T00:27:47;5.70;;;4.37;;
32912;SDS011;19266;45.580;-122.680;2022-07-31T00:30:20;5.12;;;4.60;;
32912;SDS011;19266;45.580;-122.680;2022-07-31T00:32:49;5.10;;;4.40;;
32912;SDS011;19266;45.580;-122.680;2022-07-31T00:35:23;5.17;;;4.30;;
32912;SDS011;19266;45.580;-122.680;2022-07-31T00:37:53;11.93;;;5.10;;
32912;SDS011;19266;45.580;-122.680;2022-07-31T00:40:23;5.72;;;4.40;;
32912;SDS011;19266;45.580;-122.680;2022-07-31T00:42:54;6.50;;;4.08;;
32912;SDS011;19266;45.580;-122.680;2022-07-31T00:45:25;4.87;;;4.37;;
32912;SDS011;19266;45.580;-122.680;2022-07-31T00:47:57;6.92;;;4.40;;
32912;SDS011;19266;45.580;-122.680;2022-07-31T00:50:29;5.62;;;4.30;;
32912;SDS011;19266;45.580;-122.680;2022-07-31T00:52:59;5.58;;;4.30;;
32912;SDS011;19266;45.580;-122.680;2022-07-31T00:55:29;9.80;;;4.55;;
32912;SDS011;19266;45.580;-122.680;2022-07-31T00:57:58;5.12;;;4.62;;
32912;SDS011;19266;45.580;-122.680;2022-07-31T01:00:32;7.75;;;4.47;;
32912;SDS011;19266;45.580;-122.680;2022-07-31T01:03:01;4.95;;;4.50;;
32912;SDS011;19266;45.580;-122.680;2022-07-31T01:05:31;6.37;;;4.67;;
32912;SDS011;19266;45.580;-122.680;2022-07-31T01:08:01;9.70;;;4.40;;
32912;SDS011;19266;45.580;-122.680;2022-07-31T01:10:42;4.72;;;4.40;;
32912;SDS011;19266;45.580;-122.680;2022-07-31T01:13:29;7.85;;;4.40;;
32912;SDS011;19266;45.580;-122.680;2022-07-31T01:15:57;4.78;;;4.28;;
32912;SDS011;19266;45.580;-122.680;2022-07-31T01:18:29;6.83;;;4.40;;
32912;SDS011;19266;45.580;-122.680;2022-07-31T01:20:59;5.62;;;4.25;;
32912;SDS011;19266;45.580;-122.680;2022-07-31T01:26:22;4.90;;;4.50;;
32912;SDS011;19266;45.580;-122.680;2022-07-31T01:31:15;9.30;;;4.75;;
32912;SDS011;19266;45.580;-122.680;2022-07-31T01:33:47;6.10;;;4.58;;
32912;SDS011;19266;45.580;-122.680;2022-07-31T01:36:16;4.60;;;4.30;;
32912;SDS011;19266;45.580;-122.680;2022-07-31T01:38:47;5.00;;;4.60;;
32912;SDS011;19266;45.580;-122.680;2022-07-31T01:41:19;5.40;;;4.45;;
32912;SDS011;19266;45.580;-122.680;2022-07-31T01:43:50;7.08;;;4.72;;
32912;SDS011;19266;45.580;-122.680;2022-07-31T01:46:22;5.37;;;4.87;;
32912;SDS011;19266;45.580;-122.680;2022-07-31T01:48:54;4.90;;;4.50;;
32912;SDS011;19266;45.580;-122.680;2022-07-31T01:51:26;5.17;;;4.60;;
32912;SDS011;19266;45.580;-122.680;2022-07-31T01:53:58;5.22;;;4.47;;
32912;SDS011;19266;45.580;-122.680;2022-07-31T01:56:29;30.52;;;5.97;;
32912;SDS011;19266;45.580;-122.680;2022-07-31T01:59:00;5.00;;;4.55;;
32912;SDS011;19266;45.580;-122.680;2022-07-31T02:01:30;4.83;;;4.42;;
32912;SDS011;19266;45.580;-122.680;2022-07-31T02:04:00;6.05;;;4.72;;
32912;SDS011;19266;45.580;-122.680;2022-07-31T02:06:29;4.70;;;4.30;;
32912;SDS011;19266;45.580;-122.680;2022-07-31T02:09:01;6.37;;;4.65;;
32912;SDS011;19266;45.580;-122.680;2022-07-31T02:11:29;9.03;;;5.00;;
32912;SDS011;19266;45.580;-122.680;2022-07-31T02:13:58;4.80;;;4.40;;
32912;SDS011;19266;45.580;-122.680;2022-07-31T02:16:32;4.58;;;4.28;;
32912;SDS011;19266;45.580;-122.680;2022-07-31T02:19:02;4.90;;;4.42;;
32912;SDS011;19266;45.580;-122.680;2022-07-31T02:21:35;8.03;;;4.72;;
32912;SDS011;19266;45.580;-122.680;2022-07-31T02:24:05;5.10;;;4.60;;
32912;SDS011;19266;45.580;-122.680;2022-07-31T02:26:35;4.85;;;4.35;;
32912;SDS011;19266;45.580;-122.680;2022-07-31T02:29:08;6.75;;;4.40;;
32912;SDS011;19266;45.580;-122.680;2022-07-31T02:31:39;4.85;;;4.42;;
32912;SDS011;19266;45.580;-122.680;2022-07-31T02:34:11;4.62;;;4.17;;
32912;SDS011;19266;45.580;-122.680;2022-07-31T02:36:42;7.53;;;4.70;;
32912;SDS011;19266;45.580;-122.680;2022-07-31T02:39:11;4.90;;;4.40;;
32912;SDS011;19266;45.580;-122.680;2022-07-31T02:41:42;8.60;;;4.70;;
32912;SDS011;19266;45.580;-122.680;2022-07-31T02:44:16;7.03;;;4.40;;
32912;SDS011;19266;45.580;-122.680;2022-07-31T02:46:45;4.95;;;4.42;;
32912;SDS011;19266;45.580;-122.680;2022-07-31T02:49:15;4.87;;;4.47;;
32912;SDS011;19266;45.580;-122.680;2022-07-31T02:51:46;15.83;;;5.45;;
32912;SDS011;19266;45.580;-122.680;2022-07-31T02:54:18;22.58;;;4.70;;
32912;SDS011;19266;45.580;-122.680;2022-07-31T02:56:46;13.93;;;4.60;;
32912;SDS011;19266;45.580;-122.680;2022-07-31T02:59:15;6.87;;;4.37;;
32912;SDS011;19266;45.580;-122.680;2022-07-31T03:01:44;5.08;;;4.33;;
32912;SDS011;19266;45.580;-122.680;2022-07-31T03:04:14;12.65;;;4.92;;
32912;SDS011;19266;45.580;-122.680;2022-07-31T03:06:43;25.97;;;5.33;;
32912;SDS011;19266;45.580;-122.680;2022-07-31T03:09:12;5.85;;;4.75;;
32912;SDS011;19266;45.580;-122.680;2022-07-31T03:11:41;5.83;;;4.55;;
32912;SDS011;19266;45.580;-122.680;2022-07-31T03:14:10;4.87;;;4.50;;
32912;SDS011;19266;45.580;-122.680;2022-07-31T03:16:42;5.00;;;4.50;;
32912;SDS011;19266;45.580;-122.680;2022-07-31T03:19:12;5.05;;;4.65;;
32912;SDS011;19266;45.580;-122.680;2022-07-31T03:21:42;5.25;;;4.75;;
32912;SDS011;19266;45.580;-122.680;2022-07-31T03:24:11;9.60;;;4.90;;
32912;SDS011;19266;45.580;-122.680;2022-07-31T03:26:41;25.10;;;6.03;;
32912;SDS011;19266;45.580;-122.680;2022-07-31T03:29:11;12.75;;;4.87;;
32912;SDS011;19266;45.580;-122.680;2022-07-31T03:31:41;7.70;;;4.83;;
32912;SDS011;19266;45.580;-122.680;2022-07-31T03:34:12;5.00;;;4.53;;
32912;SDS011;19266;45.580;-122.680;2022-07-31T03:36:41;5.47;;;4.55;;
32912;SDS011;19266;45.580;-122.680;2022-07-31T03:39:11;5.00;;;4.50;;
32912;SDS011;19266;45.580;-122.680;2022-07-31T03:41:42;4.50;;;4.10;;
32912;SDS011;19266;45.580;-122.680;2022-07-31T03:44:11;4.97;;;4.50;;
32912;SDS011;19266;45.580;-122.680;2022-07-31T03:46:40;5.50;;;4.30;;
32912;SDS011;19266;45.580;-122.680;2022-07-31T03:49:09;4.97;;;4.37;;
32912;SDS011;19266;45.580;-122.680;2022-07-31T03:51:40;5.55;;;4.33;;
32912;SDS011;19266;45.580;-122.680;2022-07-31T03:54:08;5.70;;;4.22;;
32912;SDS011;19266;45.580;-122.680;2022-07-31T03:56:39;4.67;;;4.28;;
32912;SDS011;19266;45.580;-122.680;2022-07-31T03:59:08;5.42;;;4.62;;
32912;SDS011;19266;45.580;-122.680;2022-07-31T04:01:37;5.12;;;4.40;;
32912;SDS011;19266;45.580;-122.680;2022-07-31T04:04:08;6.03;;;4.10;;
32912;SDS011;19266;45.580;-122.680;2022-07-31T04:06:37;4.78;;;4.30;;
32912;SDS011;19266;45.580;-122.680;2022-07-31T04:09:07;5.55;;;4.58;;
32912;SDS011;19266;45.580;-122.680;2022-07-31T04:11:38;6.55;;;4.40;;
32912;SDS011;19266;45.580;-122.680;2022-07-31T04:14:06;5.45;;;4.90;;
32912;SDS011;19266;45.580;-122.680;2022-07-31T04:16:35;7.22;;;4.85;;
32912;SDS011;19266;45.580;-122.680;2022-07-31T04:19:04;5.72;;;4.70;;
32912;SDS011;19266;45.580;-122.680;2022-07-31T04:21:35;8.45;;;4.92;;
32912;SDS011;19266;45.580;-122.680;2022-07-31T04:24:04;9.13;;;4.67;;
32912;SDS011;19266;45.580;-122.680;2022-07-31T04:26:36;7.33;;;4.50;;
32912;SDS011;19266;45.580;-122.680;2022-07-31T04:29:04;6.33;;;4.50;;
32912;SDS011;19266;45.580;-122.680;2022-07-31T04:31:35;5.92;;;4.20;;
32912;SDS011;19266;45.580;-122.680;2022-07-31T04:34:05;8.43;;;4.42;;
32912;SDS011;19266;45.580;-122.680;2022-07-31T04:36:34;5.05;;;4.45;;
32912;SDS011;19266;45.580;-122.680;2022-07-31T04:39:04;7.53;;;4.35;;
32912;SDS011;19266;45.580;-122.680;2022-07-31T04:41:38;6.97;;;4.40;;
32912;SDS011;19266;45.580;-122.680;2022-07-31T04:44:05;6.58;;;5.30;;
32912;SDS011;19266;45.580;-122.680;2022-07-31T04:46:34;5.95;;;4.45;;
32912;SDS011;19266;45.580;-122.680;2022-07-31T04:49:06;6.92;;;4.33;;
32912;SDS011;19266;45.580;-122.680;2022-07-31T04:51:35;4.60;;;4.17;;
32912;SDS011;19266;45.580;-122.680;2022-07-31T04:54:04;4.62;;;3.85;;
32912;SDS011;19266;45.580;-122.680;2022-07-31T04:56:33;4.70;;;4.30;;
32912;SDS011;19266;45.580;-122.680;2022-07-31T04:59:09;12.13;;;4.28;;
32912;SDS011;19266;45.580;-122.680;2022-07-31T05:01:39;8.38;;;3.83;;
32912;SDS011;19266;45.580;-122.680;2022-07-31T05:04:08;6.00;;;3.83;;
32912;SDS011;19266;45.580;-122.680;2022-07-31T05:06:43;5.45;;;3.90;;
32912;SDS011;19266;45.580;-122.680;2022-07-31T05:09:14;9.40;;;3.80;;
32912;SDS011;19266;45.580;-122.680;2022-07-31T05:11:43;7.37;;;3.90;;
32912;SDS011;19266;45.580;-122.680;2022-07-31T05:14:13;4.62;;;4.10;;
32912;SDS011;19266;45.580;-122.680;2022-07-31T05:16:43;5.60;;;4.10;;
32912;SDS011;19266;45.580;-122.680;2022-07-31T05:19:13;7.20;;;4.17;;
32912;SDS011;19266;45.580;-122.680;2022-07-31T05:21:42;4.37;;;3.90;;
32912;SDS011;19266;45.580;-122.680;2022-07-31T05:24:13;5.65;;;4.08;;
32912;SDS011;19266;45.580;-122.680;2022-07-31T05:26:42;4.35;;;3.95;;
32912;SDS011;19266;45.580;-122.680;2022-07-31T05:29:12;5.10;;;3.83;;
32912;SDS011;19266;45.580;-122.680;2022-07-31T05:31:43;4.50;;;4.10;;
32912;SDS011;19266;45.580;-122.680;2022-07-31T05:34:14;4.92;;;4.08;;
32912;SDS011;19266;45.580;-122.680;2022-07-31T05:36:43;4.70;;;3.80;;
32912;SDS011;19266;45.580;-122.680;2022-07-31T05:39:14;5.30;;;4.05;;
32912;SDS011;19266;45.580;-122.680;2022-07-31T05:41:43;4.60;;;4.20;;
32912;SDS011;19266;45.580;-122.680;2022-07-31T05:44:14;7.47;;;6.10;;
32912;SDS011;19266;45.580;-122.680;2022-07-31T05:46:43;5.78;;;5.28;;
32912;SDS011;19266;45.580;-122.680;2022-07-31T05:49:12;5.70;;;5.20;;
32912;SDS011;19266;45.580;-122.680;2022-07-31T05:51:44;5.92;;;4.97;;
32912;SDS011;19266;45.580;-122.680;2022-07-31T05:54:14;5.92;;;5.20;;
32912;SDS011;19266;45.580;-122.680;2022-07-31T05:56:43;6.47;;;4.95;;
32912;SDS011;19266;45.580;-122.680;2022-07-31T05:59:13;5.08;;;4.58;;
32912;SDS011;19266;45.580;-122.680;2022-07-31T06:01:44;4.80;;;4.30;;
32912;SDS011;19266;45.580;-122.680;2022-07-31T06:04:13;5.30;;;4.37;;
32912;SDS011;19266;45.580;-122.680;2022-07-31T06:06:44;6.40;;;4.28;;
32912;SDS011;19266;45.580;-122.680;2022-07-31T06:09:13;4.37;;;3.98;;
32912;SDS011;19266;45.580;-122.680;2022-07-31T06:11:42;5.03;;;4.50;;
32912;SDS011;19266;45.580;-122.680;2022-07-31T06:14:11;10.72;;;4.78;;
32912;SDS011;19266;45.580;-122.680;2022-07-31T06:16:40;17.15;;;4.83;;
32912;SDS011;19266;45.580;-122.680;2022-07-31T06:19:11;21.37;;;4.90;;
32912;SDS011;19266;45.580;-122.680;2022-07-31T06:21:40;16.77;;;5.00;;
32912;SDS011;19266;45.580;-122.680;2022-07-31T06:24:09;16.35;;;5.08;;
32912;SDS011;19266;45.580;-122.680;2022-07-31T06:26:38;7.58;;;4.35;;
32912;SDS011;19266;45.580;-122.680;2022-07-31T06:29:07;5.22;;;4.20;;
32912;SDS011;19266;45.580;-122.680;2022-07-31T06:31:36;6.45;;;4.20;;
32912;SDS011;19266;45.580;-122.680;2022-07-31T06:34:07;6.25;;;4.20;;
32912;SDS011;19266;45.580;-122.680;2022-07-31T06:36:36;5.08;;;4.35;;
32912;SDS011;19266;45.580;-122.680;2022-07-31T06:39:05;9.78;;;4.40;;
32912;SDS011;19266;45.580;-122.680;2022-07-31T06:41:36;8.88;;;4.30;;
32912;SDS011;19266;45.580;-122.680;2022-07-31T06:44:13;8.20;;;4.28;;
32912;SDS011;19266;45.580;-122.680;2022-07-31T06:46:42;6.90;;;4.40;;
32912;SDS011;19266;45.580;-122.680;2022-07-31T06:49:12;5.15;;;4.20;;
32912;SDS011;19266;45.580;-122.680;2022-07-31T06:51:41;5.70;;;4.30;;
32912;SDS011;19266;45.580;-122.680;2022-07-31T06:54:10;4.53;;;4.12;;
32912;SDS011;19266;45.580;-122.680;2022-07-31T06:56:39;5.90;;;4.30;;
32912;SDS011;19266;45.580;-122.680;2022-07-31T06:59:10;6.37;;;4.20;;
32912;SDS011;19266;45.580;-122.680;2022-07-31T07:01:39;5.80;;;4.15;;
32912;SDS011;19266;45.580;-122.680;2022-07-31T07:04:12;4.87;;;4.25;;
32912;SDS011;19266;45.580;-122.680;2022-07-31T07:06:40;6.08;;;4.12;;
32912;SDS011;19266;45.580;-122.680;2022-07-31T07:09:09;4.87;;;4.47;;
32912;SDS011;19266;45.580;-122.680;2022-07-31T07:11:40;4.80;;;4.30;;
32912;SDS011;19266;45.580;-122.680;2022-07-31T07:14:10;5.55;;;4.10;;
32912;SDS011;19266;45.580;-122.680;2022-07-31T07:16:39;5.03;;;4.20;;
32912;SDS011;19266;45.580;-122.680;2022-07-31T07:19:09;5.25;;;4.75;;
32912;SDS011;19266;45.580;-122.680;2022-07-31T07:21:38;6.35;;;4.35;;
32912;SDS011;19266;45.580;-122.680;2022-07-31T07:24:09;5.50;;;4.60;;
32912;SDS011;19266;45.580;-122.680;2022-07-31T07:26:39;9.18;;;4.60;;
32912;SDS011;19266;45.580;-122.680;2022-07-31T07:29:08;4.87;;;4.37;;
32912;SDS011;19266;45.580;-122.680;2022-07-31T07:31:37;6.33;;;3.87;;
32912;SDS011;19266;45.580;-122.680;2022-07-31T07:34:06;5.25;;;4.20;;
32912;SDS011;19266;45.580;-122.680;2022-07-31T07:36:36;4.62;;;4.22;;
32912;SDS011;19266;45.580;-122.680;2022-07-31T07:39:07;4.70;;;4.30;;
32912;SDS011;19266;45.580;-122.680;2022-07-31T07:41:35;4.62;;;4.20;;
32912;SDS011;19266;45.580;-122.680;2022-07-31T07:44:05;4.70;;;4.17;;
32912;SDS011;19266;45.580;-122.680;2022-07-31T07:46:34;4.42;;;4.05;;
32912;SDS011;19266;45.580;-122.680;2022-07-31T07:49:03;4.60;;;4.20;;
32912;SDS011;19266;45.580;-122.680;2022-07-31T07:51:33;9.10;;;4.20;;
32912;SDS011;19266;45.580;-122.680;2022-07-31T07:54:05;6.65;;;4.60;;
32912;SDS011;19266;45.580;-122.680;2022-07-31T07:56:36;5.17;;;4.10;;
32912;SDS011;19266;45.580;-122.680;2022-07-31T07:59:06;5.12;;;4.37;;
32912;SDS011;19266;45.580;-122.680;2022-07-31T08:01:37;5.17;;;4.53;;
32912;SDS011;19266;45.580;-122.680;2022-07-31T08:04:06;7.42;;;4.30;;
32912;SDS011;19266;45.580;-122.680;2022-07-31T08:06:37;4.78;;;4.33;;
32912;SDS011;19266;45.580;-122.680;2022-07-31T08:09:07;6.50;;;4.45;;
32912;SDS011;19266;45.580;-122.680;2022-07-31T08:11:37;10.00;;;4.53;;
32912;SDS011;19266;45.580;-122.680;2022-07-31T08:14:08;6.78;;;4.60;;
32912;SDS011;19266;45.580;-122.680;2022-07-31T08:16:37;4.67;;;4.25;;
32912;SDS011;19266;45.580;-122.680;2022-07-31T08:19:08;5.20;;;4.60;;
32912;SDS011;19266;45.580;-122.680;2022-07-31T08:21:39;5.08;;;4.33;;
32912;SDS011;19266;45.580;-122.680;2022-07-31T08:24:10;4.50;;;4.10;;
32912;SDS011;19266;45.580;-122.680;2022-07-31T08:26:40;5.25;;;4.75;;
32912;SDS011;19266;45.580;-122.680;2022-07-31T08:29:27;4.50;;;4.10;;
32912;SDS011;19266;45.580;-122.680;2022-07-31T08:31:58;4.35;;;3.95;;
32912;SDS011;19266;45.580;-122.680;2022-07-31T08:34:29;5.22;;;4.20;;
32912;SDS011;19266;45.580;-122.680;2022-07-31T08:36:59;4.95;;;4.00;;
32912;SDS011;19266;45.580;-122.680;2022-07-31T08:39:29;4.12;;;3.72;;
32912;SDS011;19266;45.580;-122.680;2022-07-31T08:42:08;4.30;;;4.00;;
32912;SDS011;19266;45.580;-122.680;2022-07-31T08:44:34;4.10;;;3.70;;
32912;SDS011;19266;45.580;-122.680;2022-07-31T08:47:14;3.95;;;3.55;;
32912;SDS011;19266;45.580;-122.680;2022-07-31T08:49:47;4.00;;;3.70;;
32912;SDS011;19266;45.580;-122.680;2022-07-31T08:52:19;4.10;;;3.80;;
32912;SDS011;19266;45.580;-122.680;2022-07-31T08:54:49;6.35;;;4.00;;
32912;SDS011;19266;45.580;-122.680;2022-07-31T08:57:21;4.40;;;4.00;;
32912;SDS011;19266;45.580;-122.680;2022-07-31T08:59:51;4.83;;;3.60;;
32912;SDS011;19266;45.580;-122.680;2022-07-31T09:02:23;5.95;;;3.87;;
32912;SDS011;19266;45.580;-122.680;2022-07-31T09:04:52;4.10;;;3.80;;
32912;SDS011;19266;45.580;-122.680;2022-07-31T09:07:21;4.60;;;3.98;;
32912;SDS011;19266;45.580;-122.680;2022-07-31T09:09:52;4.05;;;3.65;;
32912;SDS011;19266;45.580;-122.680;2022-07-31T09:12:26;4.70;;;4.20;;
32912;SDS011;19266;45.580;-122.680;2022-07-31T09:14:56;4.53;;;4.12;;
32912;SDS011;19266;45.580;-122.680;2022-07-31T09:17:35;5.30;;;3.95;;
32912;SDS011;19266;45.580;-122.680;2022-07-31T09:20:15;4.40;;;4.00;;
32912;SDS011;19266;45.580;-122.680;2022-07-31T09:22:39;4.50;;;4.08;;
32912;SDS011;19266;45.580;-122.680;2022-07-31T09:25:10;4.45;;;4.00;;
32912;SDS011;19266;45.580;-122.680;2022-07-31T09:27:42;4.75;;;4.15;;
32912;SDS011;19266;45.580;-122.680;2022-07-31T09:30:13;5.85;;;3.90;;
32912;SDS011;19266;45.580;-122.680;2022-07-31T09:32:42;4.70;;;4.00;;
32912;SDS011;19266;45.580;-122.680;2022-07-31T09:35:13;4.25;;;3.85;;
32912;SDS011;19266;45.580;-122.680;2022-07-31T09:37:45;5.08;;;4.10;;
32912;SDS011;19266;45.580;-122.680;2022-07-31T09:40:13;5.10;;;3.95;;
32912;SDS011;19266;45.580;-122.680;2022-07-31T09:42:44;4.55;;;3.80;;
32912;SDS011;19266;45.580;-122.680;2022-07-31T09:45:21;5.05;;;3.90;;
32912;SDS011;19266;45.580;-122.680;2022-07-31T09:48:02;4.10;;;3.80;;
32912;SDS011;19266;45.580;-122.680;2022-07-31T09:50:33;6.85;;;4.22;;
32912;SDS011;19266;45.580;-122.680;2022-07-31T09:53:04;6.85;;;3.95;;
32912;SDS011;19266;45.580;-122.680;2022-07-31T09:55:34;4.30;;;4.00;;
32912;SDS011;19266;45.580;-122.680;2022-07-31T09:58:04;5.72;;;3.80;;
32912;SDS011;19266;45.580;-122.680;2022-07-31T10:00:35;6.33;;;3.92;;
32912;SDS011;19266;45.580;-122.680;2022-07-31T10:03:05;5.17;;;4.12;;
32912;SDS011;19266;45.580;-122.680;2022-07-31T10:05:36;5.15;;;4.12;;
32912;SDS011;19266;45.580;-122.680;2022-07-31T10:08:06;5.62;;;4.05;;
32912;SDS011;19266;45.580;-122.680;2022-07-31T10:10:36;4.65;;;4.00;;
32912;SDS011;19266;45.580;-122.680;2022-07-31T10:13:06;7.40;;;4.30;;
32912;SDS011;19266;45.580;-122.680;2022-07-31T10:15:37;6.97;;;4.37;;
32912;SDS011;19266;45.580;-122.680;2022-07-31T10:18:07;4.33;;;3.92;;
32912;SDS011;19266;45.580;-122.680;2022-07-31T10:20:38;4.80;;;4.28;;
32912;SDS011;19266;45.580;-122.680;2022-07-31T10:23:09;7.20;;;4.10;;
32912;SDS011;19266;45.580;-122.680;2022-07-31T10:25:47;4.50;;;3.90;;
32912;SDS011;19266;45.580;-122.680;2022-07-31T10:28:12;4.30;;;3.52;;
32912;SDS011;19266;45.580;-122.680;2022-07-31T10:30:43;5.72;;;3.90;;
32912;SDS011;19266;45.580;-122.680;2022-07-31T10:33:14;4.65;;;3.85;;
32912;SDS011;19266;45.580;-122.680;2022-07-31T10:41:33;7.10;;;4.03;;
32912;SDS011;19266;45.580;-122.680;2022-07-31T10:46:41;16.62;;;4.10;;
32912;SDS011;19266;45.580;-122.680;2022-07-31T10:49:13;6.95;;;4.08;;
32912;SDS011;19266;45.580;-122.680;2022-07-31T10:51:45;5.17;;;3.60;;
32912;SDS011;19266;45.580;-122.680;2022-07-31T10:54:14;3.92;;;3.60;;
32912;SDS011;19266;45.580;-122.680;2022-07-31T10:56:44;4.58;;;3.60;;
32912;SDS011;19266;45.580;-122.680;2022-07-31T10:59:16;5.12;;;3.75;;
32912;SDS011;19266;45.580;-122.680;2022-07-31T11:01:46;4.42;;;3.70;;
32912;SDS011;19266;45.580;-122.680;2022-07-31T11:04:34;3.90;;;3.50;;
32912;SDS011;19266;45.580;-122.680;2022-07-31T11:06:49;4.33;;;3.80;;
32912;SDS011;19266;45.580;-122.680;2022-07-31T11:09:22;4.25;;;3.85;;
32912;SDS011;19266;45.580;-122.680;2022-07-31T11:11:53;4.80;;;3.65;;
32912;SDS011;19266;45.580;-122.680;2022-07-31T11:14:31;3.90;;;3.50;;
32912;SDS011;19266;45.580;-122.680;2022-07-31T11:17:00;3.80;;;3.45;;
32912;SDS011;19266;45.580;-122.680;2022-07-31T11:19:41;4.15;;;3.85;;
32912;SDS011;19266;45.580;-122.680;2022-07-31T11:22:11;4.95;;;3.72;;
32912;SDS011;19266;45.580;-122.680;2022-07-31T11:24:41;5.42;;;3.58;;
32912;SDS011;19266;45.580;-122.680;2022-07-31T11:27:11;4.90;;;3.58;;
32912;SDS011;19266;45.580;-122.680;2022-07-31T11:29:40;7.35;;;3.75;;
32912;SDS011;19266;45.580;-122.680;2022-07-31T11:32:11;4.15;;;3.75;;
32912;SDS011;19266;45.580;-122.680;2022-07-31T11:37:24;10.13;;;3.98;;
32912;SDS011;19266;45.580;-122.680;2022-07-31T11:39:48;8.50;;;3.75;;
32912;SDS011;19266;45.580;-122.680;2022-07-31T11:42:18;5.00;;;3.90;;
32912;SDS011;19266;45.580;-122.680;2022-07-31T11:44:50;5.28;;;3.90;;
32912;SDS011;19266;45.580;-122.680;2022-07-31T11:47:19;4.50;;;3.58;;
32912;SDS011;19266;45.580;-122.680;2022-07-31T11:49:58;4.20;;;3.80;;
32912;SDS011;19266;45.580;-122.680;2022-07-31T11:52:25;3.98;;;3.67;;
32912;SDS011;19266;45.580;-122.680;2022-07-31T11:55:01;5.70;;;4.05;;
32912;SDS011;19266;45.580;-122.680;2022-07-31T11:57:30;4.62;;;3.75;;
32912;SDS011;19266;45.580;-122.680;2022-07-31T11:59:56;5.10;;;3.90;;
32912;SDS011;19266;45.580;-122.680;2022-07-31T12:02:26;5.65;;;3.85;;
32912;SDS011;19266;45.580;-122.680;2022-07-31T12:04:56;4.03;;;3.62;;
32912;SDS011;19266;45.580;-122.680;2022-07-31T12:07:27;4.90;;;4.17;;
32912;SDS011;19266;45.580;-122.680;2022-07-31T12:09:58;5.90;;;4.08;;
32912;SDS011;19266;45.580;-122.680;2022-07-31T12:12:29;4.87;;;4.00;;
32912;SDS011;19266;45.580;-122.680;2022-07-31T12:15:00;6.97;;;4.28;;
32912;SDS011;19266;45.580;-122.680;2022-07-31T12:17:31;7.25;;;3.87;;
32912;SDS011;19266;45.580;-122.680;2022-07-31T12:20:07;5.90;;;4.25;;
32912;SDS011;19266;45.580;-122.680;2022-07-31T12:22:37;5.97;;;3.70;;
32912;SDS011;19266;45.580;-122.680;2022-07-31T12:25:07;5.50;;;4.10;;
32912;SDS011;19266;45.580;-122.680;2022-07-31T12:27:39;5.83;;;4.00;;
32912;SDS011;19266;45.580;-122.680;2022-07-31T12:30:12;6.17;;;3.90;;
32912;SDS011;19266;45.580;-122.680;2022-07-31T12:32:43;6.45;;;4.10;;
32912;SDS011;19266;45.580;-122.680;2022-07-31T12:35:14;5.70;;;3.87;;
32912;SDS011;19266;45.580;-122.680;2022-07-31T12:37:48;6.42;;;4.33;;
32912;SDS011;19266;45.580;-122.680;2022-07-31T12:40:25;7.30;;;4.00;;
32912;SDS011;19266;45.580;-122.680;2022-07-31T12:42:55;8.10;;;4.25;;
32912;SDS011;19266;45.580;-122.680;2022-07-31T12:45:36;4.97;;;3.87;;
32912;SDS011;19266;45.580;-122.680;2022-07-31T12:48:08;4.50;;;3.77;;
32912;SDS011;19266;45.580;-122.680;2022-07-31T12:50:39;5.53;;;4.03;;
32912;SDS011;19266;45.580;-122.680;2022-07-31T12:53:10;7.15;;;4.70;;
32912;SDS011;19266;45.580;-122.680;2022-07-31T12:55:41;6.33;;;4.87;;
32912;SDS011;19266;45.580;-122.680;2022-07-31T12:58:12;6.92;;;4.45;;
32912;SDS011;19266;45.580;-122.680;2022-07-31T13:00:43;5.53;;;4.17;;
32912;SDS011;19266;45.580;-122.680;2022-07-31T13:03:15;7.28;;;4.15;;
32912;SDS011;19266;45.580;-122.680;2022-07-31T13:05:49;4.95;;;4.20;;
32912;SDS011;19266;45.580;-122.680;2022-07-31T13:08:18;4.75;;;3.95;;
32912;SDS011;19266;45.580;-122.680;2022-07-31T13:10:54;4.45;;;3.75;;
32912;SDS011;19266;45.580;-122.680;2022-07-31T13:13:27;5.75;;;4.00;;
32912;SDS011;19266;45.580;-122.680;2022-07-31T13:15:59;4.53;;;4.10;;
32912;SDS011;19266;45.580;-122.680;2022-07-31T13:18:30;4.67;;;3.80;;
32912;SDS011;19266;45.580;-122.680;2022-07-31T13:21:01;5.22;;;4.17;;
32912;SDS011;19266;45.580;-122.680;2022-07-31T13:23:31;10.50;;;3.90;;
32912;SDS011;19266;45.580;-122.680;2022-07-31T13:26:02;5.58;;;3.92;;
32912;SDS011;19266;45.580;-122.680;2022-07-31T13:28:31;5.50;;;4.22;;
32912;SDS011;19266;45.580;-122.680;2022-07-31T13:31:02;6.92;;;4.00;;
32912;SDS011;19266;45.580;-122.680;2022-07-31T13:33:33;13.20;;;4.22;;
32912;SDS011;19266;45.580;-122.680;2022-07-31T13:36:03;7.95;;;4.10;;
32912;SDS011;19266;45.580;-122.680;2022-07-31T13:38:33;8.85;;;4.28;;
32912;SDS011;19266;45.580;-122.680;2022-07-31T13:41:05;7.72;;;3.83;;
32912;SDS011;19266;45.580;-122.680;2022-07-31T13:43:54;7.17;;;4.30;;
32912;SDS011;19266;45.580;-122.680;2022-07-31T13:46:24;4.85;;;3.92;;
32912;SDS011;19266;45.580;-122.680;2022-07-31T13:48:57;5.80;;;3.60;;
32912;SDS011;19266;45.580;-122.680;2022-07-31T13:51:28;6.33;;;3.90;;
32912;SDS011;19266;45.580;-122.680;2022-07-31T13:53:58;4.37;;;3.72;;
32912;SDS011;19266;45.580;-122.680;2022-07-31T13:56:30;5.85;;;3.90;;
32912;SDS011;19266;45.580;-122.680;2022-07-31T13:59:00;5.22;;;3.83;;
32912;SDS011;19266;45.580;-122.680;2022-07-31T14:01:30;6.62;;;3.90;;
32912;SDS011;19266;45.580;-122.680;2022-07-31T14:04:00;5.60;;;3.77;;
32912;SDS011;19266;45.580;-122.680;2022-07-31T14:06:30;6.20;;;3.62;;
32912;SDS011;19266;45.580;-122.680;2022-07-31T14:09:01;6.67;;;3.95;;
32912;SDS011;19266;45.580;-122.680;2022-07-31T14:11:31;5.78;;;3.58;;
32912;SDS011;19266;45.580;-122.680;2022-07-31T14:14:02;7.60;;;3.67;;
32912;SDS011;19266;45.580;-122.680;2022-07-31T14:16:31;6.17;;;3.65;;
32912;SDS011;19266;45.580;-122.680;2022-07-31T14:19:00;4.75;;;3.45;;
32912;SDS011;19266;45.580;-122.680;2022-07-31T14:21:29;4.28;;;3.65;;
32912;SDS011;19266;45.580;-122.680;2022-07-31T14:24:00;4.25;;;3.30;;
32912;SDS011;19266;45.580;-122.680;2022-07-31T14:26:29;3.83;;;3.20;;
32912;SDS011;19266;45.580;-122.680;2022-07-31T14:29:04;5.35;;;3.25;;
32912;SDS011;19266;45.580;-122.680;2022-07-31T14:31:30;5.60;;;3.52;;
32912;SDS011;19266;45.580;-122.680;2022-07-31T14:34:01;8.50;;;3.80;;
32912;SDS011;19266;45.580;-122.680;2022-07-31T14:36:31;4.70;;;3.30;;
32912;SDS011;19266;45.580;-122.680;2022-07-31T14:39:01;4.83;;;3.37;;
32912;SDS011;19266;45.580;-122.680;2022-07-31T14:41:30;5.47;;;3.55;;
32912;SDS011;19266;45.580;-122.680;2022-07-31T14:44:01;5.37;;;3.37;;
32912;SDS011;19266;45.580;-122.680;2022-07-31T14:46:31;5.87;;;3.30;;